sensor_id;sensor_type;location;lat;lon;timestamp;P1;durP1;ratioP1;P2;durP2;ratioP2
3491;SDS011;1760;52.480;13.422;2023-11-18T00:01:37;5.83;;;4.00;;
3491;SDS011;1760;52.480;13.422;2023-11-18T00:04:06;6.60;;;3.90;;
3491;SDS011;1760;52.480;13.422;2023-11-18T00:06:40;7.10;;;4.53;;
3491;SDS011;1760;52.480;13.422;2023-11-18T00:09:09;9.60;;;4.80;;
3491;SDS011;1760;52.480;13.422;2023-11-18T00:11:39;6.33;;;4.63;;
3491;SDS011;1760;52.480;13.422;2023-11-18T00:14:07;7.07;;;4.60;;
3491;SDS011;1760;52.480;13.422;2023-11-18T00:16:36;14.77;;;6.07;;
3491;SDS011;1760;52.480;13.422;2023-11-18T00:19:03;7.90;;;3.90;;
3491;SDS011;1760;52.480;13.422;2023-11-18T00:21:30;6.63;;;4.33;;
3491;SDS011;1760;52.480;13.422;2023-11-18T00:23:57;7.30;;;4.10;;
3491;SDS011;1760;52.480;13.422;2023-11-18T00:26:24;6.33;;;4.37;;
3491;SDS011;1760;52.480;13.422;2023-11-18T00:28:53;6.13;;;4.00;;
3491;SDS011;1760;52.480;13.422;2023-11-18T00:31:19;4.13;;;3.10;;
3491;SDS011;1760;52.480;13.422;2023-11-18T00:33:46;6.67;;;3.87;;
3491;SDS011;1760;52.480;13.422;2023-11-18T00:36:13;5.50;;;3.30;;
3491;SDS011;1760;52.480;13.422;2023-11-18T00:38:40;6.43;;;4.00;;
3491;SDS011;1760;52.480;13.422;2023-11-18T00:41:07;6.60;;;4.17;;
3491;SDS011;1760;52.480;13.422;2023-11-18T00:43:35;5.50;;;4.07;;
3491;SDS011;1760;52.480;13.422;2023-11-18T00:46:03;5.50;;;3.60;;
3491;SDS011;1760;52.480;13.422;2023-11-18T00:48:30;6.70;;;4.10;;
3491;SDS011;1760;52.480;13.422;2023-11-18T00:50:57;5.83;;;4.17;;
3491;SDS011;1760;52.480;13.422;2023-11-18T00:53:25;7.03;;;4.60;;
3491;SDS011;1760;52.480;13.422;2023-11-18T00:55:51;5.53;;;4.00;;
3491;SDS011;1760;52.480;13.422;2023-11-18T00:58:18;7.10;;;4.23;;
3491;SDS011;1760;52.480;13.422;2023-11-18T01:00:45;4.30;;;3.53;;
3491;SDS011;1760;52.480;13.422;2023-11-18T01:03:15;8.20;;;4.90;;
3491;SDS011;1760;52.480;13.422;2023-11-18T01:05:42;5.77;;;4.13;;
3491;SDS011;1760;52.480;13.422;2023-11-18T01:08:11;6.50;;;4.23;;
3491;SDS011;1760;52.480;13.422;2023-11-18T01:10:38;6.70;;;4.00;;
3491;SDS011;1760;52.480;13.422;2023-11-18T01:13:05;8.20;;;4.90;;
3491;SDS011;1760;52.480;13.422;2023-11-18T01:15:34;5.70;;;4.17;;
3491;SDS011;1760;52.480;13.422;2023-11-18T01:18:01;6.53;;;4.53;;
3491;SDS011;1760;52.480;13.422;2023-11-18T01:20:29;5.70;;;4.10;;
3491;SDS011;1760;52.480;13.422;2023-11-18T01:22:58;5.77;;;4.57;;
3491;SDS011;1760;52.480;13.422;2023-11-18T01:25:25;8.33;;;3.80;;
3491;SDS011;1760;52.480;13.422;2023-11-18T01:27:52;5.03;;;4.33;;
3491;SDS011;1760;52.480;13.422;2023-11-18T01:30:19;8.20;;;5.10;;
3491;SDS011;1760;52.480;13.422;2023-11-18T01:32:45;5.70;;;4.47;;
3491;SDS011;1760;52.480;13.422;2023-11-18T01:35:14;6.93;;;3.70;;
3491;SDS011;1760;52.480;13.422;2023-11-18T01:37:43;9.30;;;5.00;;
3491;SDS011;1760;52.480;13.422;2023-11-18T01:40:10;4.90;;;3.30;;
3491;SDS011;1760;52.480;13.422;2023-11-18T01:42:40;5.03;;;4.13;;
3491;SDS011;1760;52.480;13.422;2023-11-18T01:45:08;8.27;;;5.70;;
3491;SDS011;1760;52.480;13.422;2023-11-18T01:47:36;6.10;;;3.83;;
3491;SDS011;1760;52.480;13.422;2023-11-18T01:50:06;5.37;;;3.37;;
3491;SDS011;1760;52.480;13.422;2023-11-18T01:52:36;9.10;;;5.60;;
3491;SDS011;1760;52.480;13.422;2023-11-18T01:55:05;6.27;;;4.23;;
3491;SDS011;1760;52.480;13.422;2023-11-18T01:57:33;6.73;;;4.17;;
3491;SDS011;1760;52.480;13.422;2023-11-18T02:00:02;5.87;;;4.07;;
3491;SDS011;1760;52.480;13.422;2023-11-18T02:02:33;6.37;;;4.83;;
3491;SDS011;1760;52.480;13.422;2023-11-18T02:05:03;7.93;;;4.80;;
3491;SDS011;1760;52.480;13.422;2023-11-18T02:07:32;4.40;;;3.43;;
3491;SDS011;1760;52.480;13.422;2023-11-18T02:10:01;6.60;;;4.50;;
3491;SDS011;1760;52.480;13.422;2023-11-18T02:12:31;6.27;;;3.87;;
3491;SDS011;1760;52.480;13.422;2023-11-18T02:15:08;5.70;;;3.53;;
3491;SDS011;1760;52.480;13.422;2023-11-18T02:17:39;6.53;;;3.87;;
3491;SDS011;1760;52.480;13.422;2023-11-18T02:20:08;5.83;;;3.73;;
3491;SDS011;1760;52.480;13.422;2023-11-18T02:22:41;7.57;;;4.73;;
3491;SDS011;1760;52.480;13.422;2023-11-18T02:25:11;8.10;;;4.00;;
3491;SDS011;1760;52.480;13.422;2023-11-18T02:27:44;5.77;;;3.60;;
3491;SDS011;1760;52.480;13.422;2023-11-18T02:30:11;6.00;;;3.80;;
3491;SDS011;1760;52.480;13.422;2023-11-18T02:32:43;5.97;;;3.90;;
3491;SDS011;1760;52.480;13.422;2023-11-18T02:35:15;9.37;;;4.30;;
3491;SDS011;1760;52.480;13.422;2023-11-18T02:37:50;6.57;;;4.10;;
3491;SDS011;1760;52.480;13.422;2023-11-18T02:40:22;7.77;;;3.87;;
3491;SDS011;1760;52.480;13.422;2023-11-18T02:42:56;6.03;;;3.80;;
3491;SDS011;1760;52.480;13.422;2023-11-18T02:45:25;5.83;;;4.47;;
3491;SDS011;1760;52.480;13.422;2023-11-18T02:47:53;6.87;;;4.10;;
3491;SDS011;1760;52.480;13.422;2023-11-18T02:50:22;7.10;;;4.70;;
3491;SDS011;1760;52.480;13.422;2023-11-18T02:52:49;5.30;;;4.13;;
3491;SDS011;1760;52.480;13.422;2023-11-18T02:55:16;6.73;;;3.97;;
3491;SDS011;1760;52.480;13.422;2023-11-18T02:57:46;3.50;;;3.00;;
3491;SDS011;1760;52.480;13.422;2023-11-18T03:00:15;8.23;;;4.17;;
3491;SDS011;1760;52.480;13.422;2023-11-18T03:02:47;7.90;;;3.57;;
3491;SDS011;1760;52.480;13.422;2023-11-18T03:05:16;5.30;;;2.87;;
3491;SDS011;1760;52.480;13.422;2023-11-18T03:07:44;6.97;;;4.43;;
3491;SDS011;1760;52.480;13.422;2023-11-18T03:10:14;4.97;;;3.53;;
3491;SDS011;1760;52.480;13.422;2023-11-18T03:12:46;5.93;;;4.30;;
3491;SDS011;1760;52.480;13.422;2023-11-18T03:15:14;6.40;;;3.80;;
3491;SDS011;1760;52.480;13.422;2023-11-18T03:17:43;4.93;;;3.60;;
3491;SDS011;1760;52.480;13.422;2023-11-18T03:20:11;7.70;;;4.20;;
3491;SDS011;1760;52.480;13.422;2023-11-18T03:22:41;5.67;;;4.30;;
3491;SDS011;1760;52.480;13.422;2023-11-18T03:25:11;8.20;;;3.97;;
3491;SDS011;1760;52.480;13.422;2023-11-18T03:27:38;12.23;;;4.83;;
3491;SDS011;1760;52.480;13.422;2023-11-18T03:30:06;7.90;;;4.13;;
3491;SDS011;1760;52.480;13.422;2023-11-18T03:32:35;5.80;;;3.90;;
3491;SDS011;1760;52.480;13.422;2023-11-18T03:35:02;7.07;;;3.87;;
3491;SDS011;1760;52.480;13.422;2023-11-18T03:37:33;6.07;;;4.13;;
3491;SDS011;1760;52.480;13.422;2023-11-18T03:40:00;9.00;;;3.90;;
3491;SDS011;1760;52.480;13.422;2023-11-18T03:42:27;6.13;;;3.97;;
3491;SDS011;1760;52.480;13.422;2023-11-18T03:44:54;6.20;;;3.83;;
3491;SDS011;1760;52.480;13.422;2023-11-18T03:47:22;5.43;;;4.10;;
3491;SDS011;1760;52.480;13.422;2023-11-18T03:49:50;7.17;;;3.90;;
3491;SDS011;1760;52.480;13.422;2023-11-18T03:52:19;3.80;;;3.13;;
3491;SDS011;1760;52.480;13.422;2023-11-18T03:54:46;5.50;;;3.80;;
3491;SDS011;1760;52.480;13.422;2023-11-18T03:57:16;8.23;;;3.70;;
3491;SDS011;1760;52.480;13.422;2023-11-18T03:59:42;4.67;;;2.73;;
3491;SDS011;1760;52.480;13.422;2023-11-18T04:02:09;5.37;;;3.50;;
3491;SDS011;1760;52.480;13.422;2023-11-18T04:04:36;8.00;;;4.07;;
3491;SDS011;1760;52.480;13.422;2023-11-18T04:07:06;5.67;;;3.60;;
3491;SDS011;1760;52.480;13.422;2023-11-18T04:09:36;5.60;;;3.33;;
3491;SDS011;1760;52.480;13.422;2023-11-18T04:12:06;5.17;;;3.30;;
3491;SDS011;1760;52.480;13.422;2023-11-18T04:14:33;6.30;;;3.87;;
3491;SDS011;1760;52.480;13.422;2023-11-18T04:17:01;5.03;;;3.37;;
3491;SDS011;1760;52.480;13.422;2023-11-18T04:19:29;9.60;;;3.73;;
3491;SDS011;1760;52.480;13.422;2023-11-18T04:21:55;5.77;;;4.00;;
3491;SDS011;1760;52.480;13.422;2023-11-18T04:24:24;6.83;;;4.10;;
3491;SDS011;1760;52.480;13.422;2023-11-18T04:26:50;9.00;;;4.70;;
3491;SDS011;1760;52.480;13.422;2023-11-18T04:29:17;6.97;;;4.73;;
3491;SDS011;1760;52.480;13.422;2023-11-18T04:31:44;5.70;;;3.33;;
3491;SDS011;1760;52.480;13.422;2023-11-18T04:34:13;7.53;;;3.50;;
3491;SDS011;1760;52.480;13.422;2023-11-18T04:36:40;8.13;;;4.17;;
3491;SDS011;1760;52.480;13.422;2023-11-18T04:39:07;6.80;;;4.30;;
3491;SDS011;1760;52.480;13.422;2023-11-18T04:41:38;7.07;;;3.30;;
3491;SDS011;1760;52.480;13.422;2023-11-18T04:44:05;5.63;;;3.50;;
3491;SDS011;1760;52.480;13.422;2023-11-18T04:46:32;4.53;;;3.50;;
3491;SDS011;1760;52.480;13.422;2023-11-18T04:49:01;6.40;;;4.83;;
3491;SDS011;1760;52.480;13.422;2023-11-18T04:51:28;6.20;;;3.83;;
3491;SDS011;1760;52.480;13.422;2023-11-18T04:53:55;6.90;;;3.40;;
3491;SDS011;1760;52.480;13.422;2023-11-18T04:56:21;5.53;;;4.17;;
3491;SDS011;1760;52.480;13.422;2023-11-18T04:58:50;9.60;;;5.20;;
3491;SDS011;1760;52.480;13.422;2023-11-18T05:01:16;12.03;;;5.20;;
3491;SDS011;1760;52.480;13.422;2023-11-18T05:03:43;6.10;;;3.43;;
3491;SDS011;1760;52.480;13.422;2023-11-18T05:06:10;5.57;;;4.47;;
3491;SDS011;1760;52.480;13.422;2023-11-18T05:08:37;5.43;;;4.20;;
3491;SDS011;1760;52.480;13.422;2023-11-18T05:11:04;7.50;;;4.93;;
3491;SDS011;1760;52.480;13.422;2023-11-18T05:13:31;8.30;;;4.67;;
3491;SDS011;1760;52.480;13.422;2023-11-18T05:16:00;7.20;;;4.00;;
3491;SDS011;1760;52.480;13.422;2023-11-18T05:18:28;6.23;;;4.03;;
3491;SDS011;1760;52.480;13.422;2023-11-18T05:21:01;6.30;;;4.70;;
3491;SDS011;1760;52.480;13.422;2023-11-18T05:23:30;5.90;;;3.93;;
3491;SDS011;1760;52.480;13.422;2023-11-18T05:25:57;7.43;;;4.20;;
3491;SDS011;1760;52.480;13.422;2023-11-18T05:28:24;8.13;;;4.37;;
3491;SDS011;1760;52.480;13.422;2023-11-18T05:30:53;7.90;;;4.57;;
3491;SDS011;1760;52.480;13.422;2023-11-18T05:33:24;5.40;;;4.17;;
3491;SDS011;1760;52.480;13.422;2023-11-18T05:35:53;7.00;;;4.83;;
3491;SDS011;1760;52.480;13.422;2023-11-18T05:38:22;6.50;;;4.23;;
3491;SDS011;1760;52.480;13.422;2023-11-18T05:40:51;5.73;;;4.00;;
3491;SDS011;1760;52.480;13.422;2023-11-18T05:43:22;8.47;;;4.97;;
3491;SDS011;1760;52.480;13.422;2023-11-18T05:45:51;4.90;;;3.50;;
3491;SDS011;1760;52.480;13.422;2023-11-18T05:59:33;6.40;;;4.23;;
3491;SDS011;1760;52.480;13.422;2023-11-18T06:02:03;7.60;;;4.17;;
3491;SDS011;1760;52.480;13.422;2023-11-18T06:04:33;11.27;;;4.80;;
3491;SDS011;1760;52.480;13.422;2023-11-18T06:07:00;5.70;;;4.20;;
3491;SDS011;1760;52.480;13.422;2023-11-18T06:09:32;7.93;;;4.90;;
3491;SDS011;1760;52.480;13.422;2023-11-18T06:12:09;7.40;;;4.73;;
3491;SDS011;1760;52.480;13.422;2023-11-18T06:14:37;8.70;;;4.67;;
3491;SDS011;1760;52.480;13.422;2023-11-18T06:17:04;8.00;;;5.00;;
3491;SDS011;1760;52.480;13.422;2023-11-18T06:19:32;9.80;;;5.57;;
3491;SDS011;1760;52.480;13.422;2023-11-18T06:21:59;6.70;;;4.80;;
3491;SDS011;1760;52.480;13.422;2023-11-18T06:24:26;9.33;;;5.40;;
3491;SDS011;1760;52.480;13.422;2023-11-18T06:26:54;8.90;;;5.70;;
3491;SDS011;1760;52.480;13.422;2023-11-18T06:29:21;5.10;;;3.80;;
3491;SDS011;1760;52.480;13.422;2023-11-18T06:31:50;11.40;;;5.47;;
3491;SDS011;1760;52.480;13.422;2023-11-18T06:34:16;6.53;;;4.10;;
3491;SDS011;1760;52.480;13.422;2023-11-18T06:36:43;5.57;;;4.20;;
3491;SDS011;1760;52.480;13.422;2023-11-18T06:39:10;6.87;;;4.30;;
3491;SDS011;1760;52.480;13.422;2023-11-18T06:41:38;6.80;;;4.33;;
3491;SDS011;1760;52.480;13.422;2023-11-18T06:44:13;7.07;;;3.80;;
3491;SDS011;1760;52.480;13.422;2023-11-18T06:46:43;7.03;;;4.37;;
3491;SDS011;1760;52.480;13.422;2023-11-18T06:49:11;6.87;;;4.20;;
3491;SDS011;1760;52.480;13.422;2023-11-18T06:51:40;8.30;;;5.00;;
3491;SDS011;1760;52.480;13.422;2023-11-18T06:54:07;9.00;;;5.53;;
3491;SDS011;1760;52.480;13.422;2023-11-18T06:56:35;7.27;;;4.57;;
3491;SDS011;1760;52.480;13.422;2023-11-18T06:59:03;8.40;;;4.70;;
3491;SDS011;1760;52.480;13.422;2023-11-18T07:01:31;10.80;;;5.00;;
3491;SDS011;1760;52.480;13.422;2023-11-18T07:03:58;9.87;;;5.33;;
3491;SDS011;1760;52.480;13.422;2023-11-18T07:06:26;10.07;;;5.53;;
3491;SDS011;1760;52.480;13.422;2023-11-18T07:08:54;7.40;;;4.73;;
3491;SDS011;1760;52.480;13.422;2023-11-18T07:11:24;10.57;;;4.50;;
3491;SDS011;1760;52.480;13.422;2023-11-18T07:13:51;9.07;;;5.13;;
3491;SDS011;1760;52.480;13.422;2023-11-18T07:16:21;9.17;;;5.00;;
3491;SDS011;1760;52.480;13.422;2023-11-18T07:18:48;10.00;;;4.60;;
3491;SDS011;1760;52.480;13.422;2023-11-18T07:21:15;5.70;;;4.00;;
3491;SDS011;1760;52.480;13.422;2023-11-18T07:23:44;8.77;;;4.90;;
3491;SDS011;1760;52.480;13.422;2023-11-18T07:26:11;7.63;;;4.83;;
3491;SDS011;1760;52.480;13.422;2023-11-18T07:28:38;9.87;;;4.77;;
3491;SDS011;1760;52.480;13.422;2023-11-18T07:31:05;7.30;;;4.17;;
3491;SDS011;1760;52.480;13.422;2023-11-18T07:33:33;8.20;;;5.00;;
3491;SDS011;1760;52.480;13.422;2023-11-18T07:36:00;9.33;;;5.73;;
3491;SDS011;1760;52.480;13.422;2023-11-18T07:38:28;7.47;;;5.03;;
3491;SDS011;1760;52.480;13.422;2023-11-18T07:40:57;7.20;;;4.70;;
3491;SDS011;1760;52.480;13.422;2023-11-18T07:43:24;7.37;;;4.50;;
3491;SDS011;1760;52.480;13.422;2023-11-18T07:45:56;10.20;;;5.60;;
3491;SDS011;1760;52.480;13.422;2023-11-18T07:48:47;8.83;;;5.23;;
3491;SDS011;1760;52.480;13.422;2023-11-18T07:51:14;6.77;;;4.70;;
3491;SDS011;1760;52.480;13.422;2023-11-18T07:53:41;6.90;;;4.57;;
3491;SDS011;1760;52.480;13.422;2023-11-18T07:56:09;6.83;;;3.97;;
3491;SDS011;1760;52.480;13.422;2023-11-18T07:58:37;9.77;;;6.47;;
3491;SDS011;1760;52.480;13.422;2023-11-18T08:01:04;8.67;;;6.17;;
3491;SDS011;1760;52.480;13.422;2023-11-18T08:03:32;6.67;;;4.80;;
3491;SDS011;1760;52.480;13.422;2023-11-18T08:05:59;11.07;;;6.00;;
3491;SDS011;1760;52.480;13.422;2023-11-18T08:08:27;10.10;;;5.90;;
3491;SDS011;1760;52.480;13.422;2023-11-18T08:10:54;12.57;;;7.40;;
3491;SDS011;1760;52.480;13.422;2023-11-18T08:13:22;8.70;;;5.47;;
3491;SDS011;1760;52.480;13.422;2023-11-18T08:15:59;16.80;;;6.27;;
3491;SDS011;1760;52.480;13.422;2023-11-18T08:18:28;13.53;;;7.73;;
3491;SDS011;1760;52.480;13.422;2023-11-18T08:20:56;7.33;;;4.20;;
3491;SDS011;1760;52.480;13.422;2023-11-18T08:23:25;8.00;;;4.80;;
3491;SDS011;1760;52.480;13.422;2023-11-18T08:25:54;6.73;;;4.60;;
3491;SDS011;1760;52.480;13.422;2023-11-18T08:28:23;7.57;;;4.70;;
3491;SDS011;1760;52.480;13.422;2023-11-18T08:30:50;10.70;;;5.93;;
3491;SDS011;1760;52.480;13.422;2023-11-18T08:33:18;8.83;;;5.03;;
3491;SDS011;1760;52.480;13.422;2023-11-18T08:35:45;9.77;;;5.30;;
3491;SDS011;1760;52.480;13.422;2023-11-18T08:38:15;8.30;;;5.23;;
3491;SDS011;1760;52.480;13.422;2023-11-18T08:40:42;9.63;;;4.97;;
3491;SDS011;1760;52.480;13.422;2023-11-18T08:43:10;9.40;;;4.80;;
3491;SDS011;1760;52.480;13.422;2023-11-18T08:45:39;9.23;;;5.30;;
3491;SDS011;1760;52.480;13.422;2023-11-18T08:48:06;7.83;;;5.27;;
3491;SDS011;1760;52.480;13.422;2023-11-18T08:50:33;8.20;;;5.17;;
3491;SDS011;1760;52.480;13.422;2023-11-18T08:53:01;10.40;;;4.23;;
3491;SDS011;1760;52.480;13.422;2023-11-18T08:55:29;8.33;;;3.87;;
3491;SDS011;1760;52.480;13.422;2023-11-18T08:58:06;7.23;;;4.73;;
3491;SDS011;1760;52.480;13.422;2023-11-18T09:00:46;8.10;;;4.70;;
3491;SDS011;1760;52.480;13.422;2023-11-18T09:03:19;7.77;;;5.13;;
3491;SDS011;1760;52.480;13.422;2023-11-18T09:05:54;7.23;;;4.23;;
3491;SDS011;1760;52.480;13.422;2023-11-18T09:08:29;7.10;;;4.73;;
3491;SDS011;1760;52.480;13.422;2023-11-18T09:11:00;10.03;;;6.50;;
3491;SDS011;1760;52.480;13.422;2023-11-18T09:13:27;6.93;;;4.83;;
3491;SDS011;1760;52.480;13.422;2023-11-18T09:15:56;6.47;;;4.40;;
3491;SDS011;1760;52.480;13.422;2023-11-18T09:18:25;7.47;;;5.03;;
3491;SDS011;1760;52.480;13.422;2023-11-18T09:20:52;6.50;;;4.63;;
3491;SDS011;1760;52.480;13.422;2023-11-18T09:23:20;4.80;;;3.60;;
3491;SDS011;1760;52.480;13.422;2023-11-18T09:25:48;8.60;;;4.13;;
3491;SDS011;1760;52.480;13.422;2023-11-18T09:28:15;6.87;;;4.90;;
3491;SDS011;1760;52.480;13.422;2023-11-18T09:30:43;7.33;;;4.50;;
3491;SDS011;1760;52.480;13.422;2023-11-18T09:33:20;10.30;;;4.87;;
3491;SDS011;1760;52.480;13.422;2023-11-18T09:35:57;7.37;;;4.73;;
3491;SDS011;1760;52.480;13.422;2023-11-18T09:38:28;6.87;;;4.47;;
3491;SDS011;1760;52.480;13.422;2023-11-18T09:40:56;7.60;;;5.00;;
3491;SDS011;1760;52.480;13.422;2023-11-18T09:43:28;7.00;;;4.27;;
3491;SDS011;1760;52.480;13.422;2023-11-18T09:45:59;6.23;;;4.80;;
3491;SDS011;1760;52.480;13.422;2023-11-18T09:48:34;8.83;;;4.20;;
3491;SDS011;1760;52.480;13.422;2023-11-18T09:51:05;8.20;;;3.87;;
3491;SDS011;1760;52.480;13.422;2023-11-18T09:53:33;7.90;;;4.00;;
3491;SDS011;1760;52.480;13.422;2023-11-18T09:56:06;6.63;;;4.27;;
3491;SDS011;1760;52.480;13.422;2023-11-18T09:58:49;7.90;;;4.57;;
3491;SDS011;1760;52.480;13.422;2023-11-18T10:01:33;7.23;;;4.70;;
3491;SDS011;1760;52.480;13.422;2023-11-18T10:04:09;7.00;;;3.97;;
3491;SDS011;1760;52.480;13.422;2023-11-18T10:06:38;7.50;;;5.40;;
3491;SDS011;1760;52.480;13.422;2023-11-18T10:09:12;8.30;;;4.63;;
3491;SDS011;1760;52.480;13.422;2023-11-18T10:11:53;8.07;;;4.60;;
3491;SDS011;1760;52.480;13.422;2023-11-18T10:14:30;6.20;;;4.07;;
3491;SDS011;1760;52.480;13.422;2023-11-18T10:17:03;7.33;;;5.00;;
3491;SDS011;1760;52.480;13.422;2023-11-18T10:22:24;7.10;;;4.87;;
3491;SDS011;1760;52.480;13.422;2023-11-18T10:24:52;9.07;;;6.00;;
3491;SDS011;1760;52.480;13.422;2023-11-18T10:27:21;9.67;;;5.80;;
3491;SDS011;1760;52.480;13.422;2023-11-18T10:29:50;11.50;;;5.73;;
3491;SDS011;1760;52.480;13.422;2023-11-18T10:32:21;8.90;;;6.30;;
3491;SDS011;1760;52.480;13.422;2023-11-18T10:34:53;7.90;;;4.90;;
3491;SDS011;1760;52.480;13.422;2023-11-18T10:37:20;8.80;;;5.47;;
3491;SDS011;1760;52.480;13.422;2023-11-18T10:39:48;11.67;;;6.87;;
3491;SDS011;1760;52.480;13.422;2023-11-18T10:42:16;8.07;;;5.00;;
3491;SDS011;1760;52.480;13.422;2023-11-18T10:44:53;13.27;;;6.27;;
3491;SDS011;1760;52.480;13.422;2023-11-18T10:47:23;7.83;;;5.30;;
3491;SDS011;1760;52.480;13.422;2023-11-18T10:49:51;8.47;;;5.17;;
3491;SDS011;1760;52.480;13.422;2023-11-18T10:52:21;7.30;;;5.50;;
3491;SDS011;1760;52.480;13.422;2023-11-18T10:54:51;13.50;;;4.63;;
3491;SDS011;1760;52.480;13.422;2023-11-18T10:57:19;8.77;;;5.17;;
3491;SDS011;1760;52.480;13.422;2023-11-18T10:59:59;9.07;;;5.40;;
3491;SDS011;1760;52.480;13.422;2023-11-18T11:02:29;7.70;;;5.03;;
3491;SDS011;1760;52.480;13.422;2023-11-18T11:05:02;7.50;;;4.80;;
3491;SDS011;1760;52.480;13.422;2023-11-18T11:07:29;8.67;;;4.53;;
3491;SDS011;1760;52.480;13.422;2023-11-18T11:09:59;9.40;;;5.07;;
3491;SDS011;1760;52.480;13.422;2023-11-18T11:12:30;8.30;;;5.10;;
3491;SDS011;1760;52.480;13.422;2023-11-18T11:15:05;6.37;;;4.10;;
3491;SDS011;1760;52.480;13.422;2023-11-18T11:17:46;7.63;;;4.73;;
3491;SDS011;1760;52.480;13.422;2023-11-18T11:20:20;6.93;;;4.50;;
3491;SDS011;1760;52.480;13.422;2023-11-18T11:22:56;5.43;;;3.93;;
3491;SDS011;1760;52.480;13.422;2023-11-18T11:25:35;7.30;;;5.17;;
3491;SDS011;1760;52.480;13.422;2023-11-18T11:28:10;8.03;;;4.70;;
3491;SDS011;1760;52.480;13.422;2023-11-18T11:30:42;10.50;;;5.37;;
3491;SDS011;1760;52.480;13.422;2023-11-18T11:33:17;8.33;;;4.60;;
3491;SDS011;1760;52.480;13.422;2023-11-18T11:35:54;6.53;;;4.03;;
3491;SDS011;1760;52.480;13.422;2023-11-18T11:38:23;9.83;;;4.77;;
3491;SDS011;1760;52.480;13.422;2023-11-18T11:40:51;9.57;;;6.13;;
3491;SDS011;1760;52.480;13.422;2023-11-18T11:43:20;12.23;;;4.27;;
3491;SDS011;1760;52.480;13.422;2023-11-18T11:45:48;7.90;;;4.60;;
3491;SDS011;1760;52.480;13.422;2023-11-18T11:48:17;8.90;;;4.23;;
3491;SDS011;1760;52.480;13.422;2023-11-18T11:53:40;8.23;;;5.27;;
3491;SDS011;1760;52.480;13.422;2023-11-18T11:56:13;11.70;;;6.63;;
3491;SDS011;1760;52.480;13.422;2023-11-18T11:58:46;10.80;;;6.00;;
3491;SDS011;1760;52.480;13.422;2023-11-18T12:01:21;13.73;;;6.90;;
3491;SDS011;1760;52.480;13.422;2023-11-18T12:03:55;11.20;;;5.43;;
3491;SDS011;1760;52.480;13.422;2023-11-18T12:06:24;13.27;;;7.50;;
3491;SDS011;1760;52.480;13.422;2023-11-18T12:08:53;14.33;;;7.23;;
3491;SDS011;1760;52.480;13.422;2023-11-18T12:11:20;13.03;;;6.40;;
3491;SDS011;1760;52.480;13.422;2023-11-18T12:14:00;14.47;;;6.60;;
3491;SDS011;1760;52.480;13.422;2023-11-18T12:19:33;10.80;;;6.10;;
3491;SDS011;1760;52.480;13.422;2023-11-18T12:22:11;13.27;;;6.30;;
3491;SDS011;1760;52.480;13.422;2023-11-18T12:28:10;11.87;;;6.03;;
3491;SDS011;1760;52.480;13.422;2023-11-18T12:30:40;9.83;;;5.27;;
3491;SDS011;1760;52.480;13.422;2023-11-18T12:36:46;9.30;;;4.90;;
3491;SDS011;1760;52.480;13.422;2023-11-18T12:39:38;7.60;;;4.20;;
3491;SDS011;1760;52.480;13.422;2023-11-18T12:45:39;6.40;;;4.40;;
3491;SDS011;1760;52.480;13.422;2023-11-18T12:48:31;9.73;;;5.60;;
3491;SDS011;1760;52.480;13.422;2023-11-18T12:51:02;8.63;;;5.53;;
3491;SDS011;1760;52.480;13.422;2023-11-18T12:53:35;9.53;;;5.67;;
3491;SDS011;1760;52.480;13.422;2023-11-18T12:56:03;8.53;;;5.23;;
3491;SDS011;1760;52.480;13.422;2023-11-18T12:58:31;7.40;;;4.40;;
3491;SDS011;1760;52.480;13.422;2023-11-18T13:00:58;9.40;;;4.70;;
3491;SDS011;1760;52.480;13.422;2023-11-18T13:03:28;11.73;;;5.30;;
3491;SDS011;1760;52.480;13.422;2023-11-18T13:05:55;8.60;;;4.10;;
3491;SDS011;1760;52.480;13.422;2023-11-18T13:08:22;6.70;;;3.17;;
3491;SDS011;1760;52.480;13.422;2023-11-18T13:10:49;9.80;;;6.33;;
3491;SDS011;1760;52.480;13.422;2023-11-18T13:13:18;10.70;;;5.60;;
3491;SDS011;1760;52.480;13.422;2023-11-18T13:15:47;6.67;;;4.10;;
3491;SDS011;1760;52.480;13.422;2023-11-18T13:18:15;8.77;;;5.40;;
3491;SDS011;1760;52.480;13.422;2023-11-18T13:20:53;9.33;;;5.87;;
3491;SDS011;1760;52.480;13.422;2023-11-18T13:23:22;10.20;;;6.50;;
3491;SDS011;1760;52.480;13.422;2023-11-18T13:25:53;11.40;;;5.90;;
3491;SDS011;1760;52.480;13.422;2023-11-18T13:28:23;10.37;;;5.60;;
3491;SDS011;1760;52.480;13.422;2023-11-18T13:30:50;9.97;;;5.13;;
3491;SDS011;1760;52.480;13.422;2023-11-18T13:33:18;8.60;;;4.20;;
3491;SDS011;1760;52.480;13.422;2023-11-18T13:35:46;8.50;;;6.03;;
3491;SDS011;1760;52.480;13.422;2023-11-18T13:38:14;9.77;;;4.87;;
3491;SDS011;1760;52.480;13.422;2023-11-18T13:40:44;13.00;;;5.83;;
3491;SDS011;1760;52.480;13.422;2023-11-18T13:43:11;8.27;;;5.10;;
3491;SDS011;1760;52.480;13.422;2023-11-18T13:45:41;7.30;;;4.50;;
3491;SDS011;1760;52.480;13.422;2023-11-18T13:48:08;7.93;;;5.70;;
3491;SDS011;1760;52.480;13.422;2023-11-18T13:50:40;8.13;;;4.17;;
3491;SDS011;1760;52.480;13.422;2023-11-18T13:53:07;6.90;;;4.90;;
3491;SDS011;1760;52.480;13.422;2023-11-18T13:55:35;7.60;;;4.50;;
3491;SDS011;1760;52.480;13.422;2023-11-18T13:58:04;12.87;;;5.30;;
3491;SDS011;1760;52.480;13.422;2023-11-18T14:00:32;7.37;;;4.63;;
3491;SDS011;1760;52.480;13.422;2023-11-18T14:03:00;13.90;;;6.27;;
3491;SDS011;1760;52.480;13.422;2023-11-18T14:05:29;9.70;;;6.57;;
3491;SDS011;1760;52.480;13.422;2023-11-18T14:08:00;11.20;;;5.87;;
3491;SDS011;1760;52.480;13.422;2023-11-18T14:10:33;10.40;;;5.77;;
3491;SDS011;1760;52.480;13.422;2023-11-18T14:13:04;10.47;;;5.27;;
3491;SDS011;1760;52.480;13.422;2023-11-18T14:15:37;8.93;;;5.43;;
3491;SDS011;1760;52.480;13.422;2023-11-18T14:18:07;12.23;;;6.00;;
3491;SDS011;1760;52.480;13.422;2023-11-18T14:20:34;10.27;;;5.63;;
3491;SDS011;1760;52.480;13.422;2023-11-18T14:23:01;7.10;;;4.47;;
3491;SDS011;1760;52.480;13.422;2023-11-18T14:25:29;8.60;;;5.50;;
3491;SDS011;1760;52.480;13.422;2023-11-18T14:27:57;14.80;;;6.63;;
3491;SDS011;1760;52.480;13.422;2023-11-18T14:30:23;13.53;;;6.70;;
3491;SDS011;1760;52.480;13.422;2023-11-18T14:32:51;11.20;;;6.60;;
3491;SDS011;1760;52.480;13.422;2023-11-18T14:35:19;9.70;;;5.80;;
3491;SDS011;1760;52.480;13.422;2023-11-18T14:37:47;10.70;;;6.00;;
3491;SDS011;1760;52.480;13.422;2023-11-18T14:40:15;10.60;;;6.80;;
3491;SDS011;1760;52.480;13.422;2023-11-18T14:42:42;16.70;;;8.40;;
3491;SDS011;1760;52.480;13.422;2023-11-18T14:45:10;16.27;;;6.37;;
3491;SDS011;1760;52.480;13.422;2023-11-18T14:47:38;15.93;;;8.50;;
3491;SDS011;1760;52.480;13.422;2023-11-18T14:50:06;11.07;;;6.37;;
3491;SDS011;1760;52.480;13.422;2023-11-18T14:52:43;11.70;;;6.47;;
3491;SDS011;1760;52.480;13.422;2023-11-18T14:55:11;12.57;;;6.73;;
3491;SDS011;1760;52.480;13.422;2023-11-18T14:57:38;10.80;;;5.87;;
3491;SDS011;1760;52.480;13.422;2023-11-18T15:00:06;11.40;;;6.90;;
3491;SDS011;1760;52.480;13.422;2023-11-18T15:02:34;13.17;;;5.70;;
3491;SDS011;1760;52.480;13.422;2023-11-18T15:05:01;11.97;;;8.37;;
3491;SDS011;1760;52.480;13.422;2023-11-18T15:07:30;10.13;;;6.40;;
3491;SDS011;1760;52.480;13.422;2023-11-18T15:09:58;14.57;;;6.03;;
3491;SDS011;1760;52.480;13.422;2023-11-18T15:12:25;11.17;;;6.20;;
3491;SDS011;1760;52.480;13.422;2023-11-18T15:14:52;10.40;;;5.77;;
3491;SDS011;1760;52.480;13.422;2023-11-18T15:17:19;9.30;;;6.23;;
3491;SDS011;1760;52.480;13.422;2023-11-18T15:19:47;15.00;;;7.80;;
3491;SDS011;1760;52.480;13.422;2023-11-18T15:22:16;12.67;;;7.00;;
3491;SDS011;1760;52.480;13.422;2023-11-18T15:24:43;10.53;;;6.47;;
3491;SDS011;1760;52.480;13.422;2023-11-18T15:27:11;10.03;;;5.90;;
3491;SDS011;1760;52.480;13.422;2023-11-18T15:29:40;13.40;;;7.17;;
3491;SDS011;1760;52.480;13.422;2023-11-18T15:32:14;15.00;;;6.23;;
3491;SDS011;1760;52.480;13.422;2023-11-18T15:34:42;11.30;;;5.80;;
3491;SDS011;1760;52.480;13.422;2023-11-18T15:37:09;11.47;;;5.60;;
3491;SDS011;1760;52.480;13.422;2023-11-18T15:39:36;13.87;;;7.00;;
3491;SDS011;1760;52.480;13.422;2023-11-18T15:42:03;10.37;;;6.53;;